Ana Sayfa
METAR-TAF:

METAR-TAF

Havaalanları :

Perry Lefors Field

Pampa, Teksas, Amerika Birleşik Devletleri

Enlem: 35-36-46N, Boylam: 100-59-46W, yükseklik: 989 m

Güncel hava durumu gözlemi

Rapor saat 20:35 UTC de 15 dakika önce yapıldı.
Rüzgar güneydan 18 kt ve 25 kt'a kadar ani rüzgarlar
Sıcaklık 21°C
Nem 43%
Basınç 1006 hPa
Görüş mesafesi: 16.1 km
8500 ft yükseklikte parçalı bulutlu
11000 ft yükseklikte parçalı çok bulutlu

METAR: KPPA 232035Z AUTO 19018G25KT 10SM SCT085 BKN110 21/08 A2970 RMK AO2 T02070079

Saat: 14:50 (20:50 UTC)


TAF: eksik

4.000'den fazla havaalanı için hava durumu gözlemleri ve tahminleri (METAR ve TAF raporları).

Kullanılabilir istasyonlar harita üzerinde sarı ve kırmızı noktalarla gösterilir.

İstasyonun adını görmek için fareyi noktanın üzerinde gezdirin.

Sonrasında hava gözlem ve tahminlerini görmek için tıklayın.

Haritayı değiştirmek için: yaklaştırmak için siyah artı işaretli yeşil düğmeye ve uzaklaştırmak için de eksi işaretli düğmeye hızla tıklayın; bitişik haritalar için yeşil okları kullanın.


METAR-TAF: